sensor_id;sensor_type;location;lat;lon;timestamp;P1;durP1;ratioP1;P2;durP2;ratioP2
80425;SDS011;69766;51.476;5.704;2024-03-02T00:02:40;3.05;;;0.98;;
80425;SDS011;69766;51.476;5.704;2024-03-02T00:05:21;1.67;;;0.90;;
80425;SDS011;69766;51.476;5.704;2024-03-02T00:08:29;3.58;;;1.23;;
80425;SDS011;69766;51.476;5.704;2024-03-02T00:11:12;3.95;;;1.02;;
80425;SDS011;69766;51.476;5.704;2024-03-02T00:14:10;3.05;;;1.10;;
80425;SDS011;69766;51.476;5.704;2024-03-02T00:16:42;3.78;;;1.13;;
80425;SDS011;69766;51.476;5.704;2024-03-02T00:19:29;4.97;;;1.00;;
80425;SDS011;69766;51.476;5.704;2024-03-02T00:25:06;3.03;;;1.10;;
80425;SDS011;69766;51.476;5.704;2024-03-02T00:27:55;3.10;;;1.10;;
80425;SDS011;69766;51.476;5.704;2024-03-02T00:33:49;2.42;;;1.00;;
80425;SDS011;69766;51.476;5.704;2024-03-02T00:36:48;1.98;;;0.70;;
80425;SDS011;69766;51.476;5.704;2024-03-02T01:03:40;0.40;;;0.40;;
80425;SDS011;69766;51.476;5.704;2024-03-02T01:27:00;0.85;;;0.30;;
80425;SDS011;69766;51.476;5.704;2024-03-02T01:30:05;1.17;;;0.30;;
80425;SDS011;69766;51.476;5.704;2024-03-02T01:32:52;0.60;;;0.30;;
80425;SDS011;69766;51.476;5.704;2024-03-02T01:44:06;1.55;;;0.30;;
80425;SDS011;69766;51.476;5.704;2024-03-02T01:46:45;0.47;;;0.30;;
80425;SDS011;69766;51.476;5.704;2024-03-02T01:49:34;1.70;;;0.30;;
80425;SDS011;69766;51.476;5.704;2024-03-02T01:52:16;1.40;;;0.60;;
80425;SDS011;69766;51.476;5.704;2024-03-02T01:58:33;0.45;;;0.30;;
80425;SDS011;69766;51.476;5.704;2024-03-02T02:01:39;1.63;;;0.40;;
80425;SDS011;69766;51.476;5.704;2024-03-02T02:04:52;0.85;;;0.47;;
80425;SDS011;69766;51.476;5.704;2024-03-02T02:07:46;1.88;;;0.50;;
80425;SDS011;69766;51.476;5.704;2024-03-02T02:10:39;1.70;;;0.60;;
80425;SDS011;69766;51.476;5.704;2024-03-02T02:13:57;1.10;;;0.30;;
80425;SDS011;69766;51.476;5.704;2024-03-02T02:16:59;1.83;;;0.40;;
80425;SDS011;69766;51.476;5.704;2024-03-02T02:23:06;2.63;;;0.40;;
80425;SDS011;69766;51.476;5.704;2024-03-02T02:25:55;0.63;;;0.30;;
80425;SDS011;69766;51.476;5.704;2024-03-02T02:35:17;1.67;;;0.75;;
80425;SDS011;69766;51.476;5.704;2024-03-02T02:38:11;1.77;;;0.40;;
80425;SDS011;69766;51.476;5.704;2024-03-02T02:44:12;3.17;;;0.60;;
80425;SDS011;69766;51.476;5.704;2024-03-02T02:46:57;1.60;;;0.40;;
80425;SDS011;69766;51.476;5.704;2024-03-02T02:50:12;0.90;;;0.40;;
80425;SDS011;69766;51.476;5.704;2024-03-02T02:53:05;0.82;;;0.55;;
80425;SDS011;69766;51.476;5.704;2024-03-02T02:58:32;1.05;;;0.50;;
80425;SDS011;69766;51.476;5.704;2024-03-02T03:04:21;1.00;;;0.60;;
80425;SDS011;69766;51.476;5.704;2024-03-02T03:07:24;0.95;;;0.45;;
80425;SDS011;69766;51.476;5.704;2024-03-02T03:10:10;2.25;;;0.43;;
80425;SDS011;69766;51.476;5.704;2024-03-02T03:13:00;0.40;;;0.30;;
80425;SDS011;69766;51.476;5.704;2024-03-02T03:15:52;1.92;;;0.55;;
80425;SDS011;69766;51.476;5.704;2024-03-02T03:21:25;1.33;;;0.45;;
80425;SDS011;69766;51.476;5.704;2024-03-02T03:23:59;1.17;;;0.20;;
80425;SDS011;69766;51.476;5.704;2024-03-02T03:29:25;0.55;;;0.40;;
80425;SDS011;69766;51.476;5.704;2024-03-02T03:32:12;1.58;;;0.50;;
80425;SDS011;69766;51.476;5.704;2024-03-02T03:34:54;2.38;;;0.47;;
80425;SDS011;69766;51.476;5.704;2024-03-02T03:37:43;1.10;;;0.50;;
80425;SDS011;69766;51.476;5.704;2024-03-02T03:49:37;0.63;;;0.30;;
80425;SDS011;69766;51.476;5.704;2024-03-02T03:52:41;1.23;;;0.45;;
80425;SDS011;69766;51.476;5.704;2024-03-02T03:55:38;1.08;;;0.38;;
80425;SDS011;69766;51.476;5.704;2024-03-02T03:58:32;0.98;;;0.38;;
80425;SDS011;69766;51.476;5.704;2024-03-02T04:01:12;0.93;;;0.50;;
80425;SDS011;69766;51.476;5.704;2024-03-02T04:11:02;0.70;;;0.28;;
80425;SDS011;69766;51.476;5.704;2024-03-02T04:13:41;0.55;;;0.30;;
80425;SDS011;69766;51.476;5.704;2024-03-02T04:16:19;2.03;;;0.52;;
80425;SDS011;69766;51.476;5.704;2024-03-02T04:19:11;1.38;;;0.50;;
80425;SDS011;69766;51.476;5.704;2024-03-02T04:22:08;0.45;;;0.20;;
80425;SDS011;69766;51.476;5.704;2024-03-02T04:32:26;2.97;;;0.40;;
80425;SDS011;69766;51.476;5.704;2024-03-02T04:35:31;2.17;;;0.55;;
80425;SDS011;69766;51.476;5.704;2024-03-02T04:38:51;1.50;;;0.63;;
80425;SDS011;69766;51.476;5.704;2024-03-02T04:41:39;0.60;;;0.45;;
80425;SDS011;69766;51.476;5.704;2024-03-02T04:50:58;1.15;;;0.50;;
80425;SDS011;69766;51.476;5.704;2024-03-02T04:53:58;1.38;;;0.40;;
80425;SDS011;69766;51.476;5.704;2024-03-02T04:56:40;1.70;;;0.43;;
80425;SDS011;69766;51.476;5.704;2024-03-02T04:59:38;0.82;;;0.50;;
80425;SDS011;69766;51.476;5.704;2024-03-02T05:02:18;0.95;;;0.75;;
80425;SDS011;69766;51.476;5.704;2024-03-02T05:08:05;3.25;;;0.80;;
80425;SDS011;69766;51.476;5.704;2024-03-02T05:17:09;1.27;;;0.50;;
80425;SDS011;69766;51.476;5.704;2024-03-02T05:19:56;2.15;;;0.30;;
80425;SDS011;69766;51.476;5.704;2024-03-02T05:23:02;0.80;;;0.40;;
80425;SDS011;69766;51.476;5.704;2024-03-02T05:32:23;1.55;;;0.52;;
80425;SDS011;69766;51.476;5.704;2024-03-02T05:38:28;1.85;;;0.65;;
80425;SDS011;69766;51.476;5.704;2024-03-02T05:43:45;7.93;;;0.70;;
80425;SDS011;69766;51.476;5.704;2024-03-02T05:46:47;0.95;;;0.50;;
80425;SDS011;69766;51.476;5.704;2024-03-02T05:52:21;1.27;;;0.38;;
80425;SDS011;69766;51.476;5.704;2024-03-02T05:55:17;0.85;;;0.43;;
80425;SDS011;69766;51.476;5.704;2024-03-02T05:58:19;1.50;;;0.60;;
80425;SDS011;69766;51.476;5.704;2024-03-02T06:01:30;1.00;;;0.50;;
80425;SDS011;69766;51.476;5.704;2024-03-02T06:07:38;1.52;;;0.70;;
80425;SDS011;69766;51.476;5.704;2024-03-02T06:10:13;4.82;;;0.75;;
80425;SDS011;69766;51.476;5.704;2024-03-02T06:22:04;1.60;;;0.77;;
80425;SDS011;69766;51.476;5.704;2024-03-02T06:25:03;1.58;;;0.73;;
80425;SDS011;69766;51.476;5.704;2024-03-02T06:30:36;2.10;;;0.80;;
80425;SDS011;69766;51.476;5.704;2024-03-02T06:47:03;1.70;;;0.80;;
80425;SDS011;69766;51.476;5.704;2024-03-02T06:49:56;1.38;;;0.70;;
80425;SDS011;69766;51.476;5.704;2024-03-02T07:16:19;1.42;;;0.52;;
80425;SDS011;69766;51.476;5.704;2024-03-02T07:19:23;2.83;;;0.85;;
80425;SDS011;69766;51.476;5.704;2024-03-02T07:35:42;3.47;;;1.00;;
80425;SDS011;69766;51.476;5.704;2024-03-02T08:07:13;2.47;;;0.80;;
80425;SDS011;69766;51.476;5.704;2024-03-02T08:13:20;3.70;;;0.57;;
80425;SDS011;69766;51.476;5.704;2024-03-02T08:16:41;1.38;;;0.57;;
80425;SDS011;69766;51.476;5.704;2024-03-02T08:32:27;3.60;;;0.52;;
80425;SDS011;69766;51.476;5.704;2024-03-02T08:35:03;2.58;;;0.43;;
80425;SDS011;69766;51.476;5.704;2024-03-02T08:37:41;1.08;;;0.52;;
80425;SDS011;69766;51.476;5.704;2024-03-02T08:43:28;5.10;;;0.50;;
80425;SDS011;69766;51.476;5.704;2024-03-02T08:46:06;5.60;;;0.82;;
80425;SDS011;69766;51.476;5.704;2024-03-02T08:48:39;2.83;;;0.70;;
80425;SDS011;69766;51.476;5.704;2024-03-02T08:51:17;2.90;;;0.60;;
80425;SDS011;69766;51.476;5.704;2024-03-02T08:57:13;7.60;;;0.68;;
80425;SDS011;69766;51.476;5.704;2024-03-02T08:59:41;2.10;;;0.50;;
80425;SDS011;69766;51.476;5.704;2024-03-02T09:02:25;1.40;;;0.60;;
80425;SDS011;69766;51.476;5.704;2024-03-02T09:05:01;3.30;;;0.60;;
80425;SDS011;69766;51.476;5.704;2024-03-02T09:08:11;2.13;;;0.55;;
80425;SDS011;69766;51.476;5.704;2024-03-02T09:10:52;2.80;;;0.80;;
80425;SDS011;69766;51.476;5.704;2024-03-02T09:13:39;2.95;;;0.60;;
80425;SDS011;69766;51.476;5.704;2024-03-02T09:20:04;4.30;;;0.88;;
80425;SDS011;69766;51.476;5.704;2024-03-02T09:22:44;4.05;;;0.70;;
80425;SDS011;69766;51.476;5.704;2024-03-02T09:25:22;3.55;;;0.63;;
80425;SDS011;69766;51.476;5.704;2024-03-02T09:27:59;3.38;;;0.70;;
80425;SDS011;69766;51.476;5.704;2024-03-02T09:30:36;1.63;;;0.70;;
80425;SDS011;69766;51.476;5.704;2024-03-02T09:33:11;5.55;;;0.70;;
80425;SDS011;69766;51.476;5.704;2024-03-02T09:36:00;5.03;;;0.95;;
80425;SDS011;69766;51.476;5.704;2024-03-02T09:38:32;4.32;;;1.05;;
80425;SDS011;69766;51.476;5.704;2024-03-02T09:44:26;3.22;;;0.52;;
80425;SDS011;69766;51.476;5.704;2024-03-02T09:49:57;1.50;;;0.50;;
80425;SDS011;69766;51.476;5.704;2024-03-02T09:52:27;2.03;;;0.60;;
80425;SDS011;69766;51.476;5.704;2024-03-02T09:55:16;3.53;;;0.60;;
80425;SDS011;69766;51.476;5.704;2024-03-02T09:57:58;2.83;;;0.60;;
80425;SDS011;69766;51.476;5.704;2024-03-02T10:00:44;2.65;;;0.43;;
80425;SDS011;69766;51.476;5.704;2024-03-02T10:09:26;4.50;;;0.60;;
80425;SDS011;69766;51.476;5.704;2024-03-02T10:12:12;3.05;;;0.55;;
80425;SDS011;69766;51.476;5.704;2024-03-02T10:14:59;7.22;;;0.80;;
80425;SDS011;69766;51.476;5.704;2024-03-02T10:17:55;1.65;;;0.88;;
80425;SDS011;69766;51.476;5.704;2024-03-02T10:20:29;4.55;;;0.60;;
80425;SDS011;69766;51.476;5.704;2024-03-02T10:23:22;6.05;;;1.23;;
80425;SDS011;69766;51.476;5.704;2024-03-02T10:26:16;4.13;;;0.80;;
80425;SDS011;69766;51.476;5.704;2024-03-02T10:29:18;4.78;;;0.80;;
80425;SDS011;69766;51.476;5.704;2024-03-02T10:35:18;5.70;;;1.10;;
80425;SDS011;69766;51.476;5.704;2024-03-02T10:38:01;2.70;;;0.60;;
80425;SDS011;69766;51.476;5.704;2024-03-02T10:40:50;3.67;;;0.75;;
80425;SDS011;69766;51.476;5.704;2024-03-02T10:43:32;3.05;;;0.77;;
80425;SDS011;69766;51.476;5.704;2024-03-02T10:46:06;3.47;;;1.00;;
80425;SDS011;69766;51.476;5.704;2024-03-02T10:49:06;4.40;;;0.80;;
80425;SDS011;69766;51.476;5.704;2024-03-02T10:52:04;1.35;;;0.40;;
80425;SDS011;69766;51.476;5.704;2024-03-02T10:54:50;2.67;;;0.63;;
80425;SDS011;69766;51.476;5.704;2024-03-02T10:57:22;2.88;;;0.50;;
80425;SDS011;69766;51.476;5.704;2024-03-02T11:00:09;2.83;;;0.60;;
80425;SDS011;69766;51.476;5.704;2024-03-02T11:03:27;3.38;;;0.77;;
80425;SDS011;69766;51.476;5.704;2024-03-02T11:06:32;2.38;;;0.50;;
80425;SDS011;69766;51.476;5.704;2024-03-02T11:09:16;2.10;;;0.50;;
80425;SDS011;69766;51.476;5.704;2024-03-02T11:12:46;4.63;;;0.80;;
80425;SDS011;69766;51.476;5.704;2024-03-02T11:14:59;3.67;;;0.68;;
80425;SDS011;69766;51.476;5.704;2024-03-02T11:20:30;3.55;;;0.75;;
80425;SDS011;69766;51.476;5.704;2024-03-02T11:23:14;4.18;;;0.60;;
80425;SDS011;69766;51.476;5.704;2024-03-02T11:25:55;2.08;;;0.60;;
80425;SDS011;69766;51.476;5.704;2024-03-02T11:29:07;4.22;;;0.93;;
80425;SDS011;69766;51.476;5.704;2024-03-02T11:32:02;5.50;;;0.90;;
80425;SDS011;69766;51.476;5.704;2024-03-02T11:38:02;3.40;;;0.80;;
80425;SDS011;69766;51.476;5.704;2024-03-02T11:44:14;3.75;;;0.98;;
80425;SDS011;69766;51.476;5.704;2024-03-02T11:47:03;5.45;;;2.38;;
80425;SDS011;69766;51.476;5.704;2024-03-02T11:49:43;2.67;;;0.93;;
80425;SDS011;69766;51.476;5.704;2024-03-02T11:55:45;4.82;;;1.20;;
80425;SDS011;69766;51.476;5.704;2024-03-02T11:58:39;6.75;;;1.02;;
80425;SDS011;69766;51.476;5.704;2024-03-02T12:01:29;2.05;;;0.90;;
80425;SDS011;69766;51.476;5.704;2024-03-02T12:04:24;5.38;;;1.00;;
80425;SDS011;69766;51.476;5.704;2024-03-02T12:07:11;4.20;;;1.60;;
80425;SDS011;69766;51.476;5.704;2024-03-02T12:09:59;4.88;;;1.10;;
80425;SDS011;69766;51.476;5.704;2024-03-02T12:13:09;6.07;;;2.20;;
80425;SDS011;69766;51.476;5.704;2024-03-02T12:16:22;5.43;;;1.05;;
80425;SDS011;69766;51.476;5.704;2024-03-02T12:19:14;5.07;;;1.70;;
80425;SDS011;69766;51.476;5.704;2024-03-02T12:21:56;4.43;;;0.70;;
80425;SDS011;69766;51.476;5.704;2024-03-02T12:24:34;4.80;;;1.10;;
80425;SDS011;69766;51.476;5.704;2024-03-02T12:27:21;5.17;;;1.10;;
80425;SDS011;69766;51.476;5.704;2024-03-02T12:30:01;3.60;;;0.90;;
80425;SDS011;69766;51.476;5.704;2024-03-02T12:35:48;6.32;;;0.80;;
80425;SDS011;69766;51.476;5.704;2024-03-02T12:41:11;4.47;;;0.90;;
80425;SDS011;69766;51.476;5.704;2024-03-02T12:44:08;4.18;;;0.80;;
80425;SDS011;69766;51.476;5.704;2024-03-02T12:46:46;3.20;;;0.77;;
80425;SDS011;69766;51.476;5.704;2024-03-02T12:52:40;3.83;;;0.70;;
80425;SDS011;69766;51.476;5.704;2024-03-02T12:55:39;2.83;;;0.70;;
80425;SDS011;69766;51.476;5.704;2024-03-02T12:58:30;3.42;;;0.73;;
80425;SDS011;69766;51.476;5.704;2024-03-02T13:01:14;4.70;;;0.63;;
80425;SDS011;69766;51.476;5.704;2024-03-02T13:04:02;2.67;;;0.70;;
80425;SDS011;69766;51.476;5.704;2024-03-02T13:09:54;3.00;;;0.88;;
80425;SDS011;69766;51.476;5.704;2024-03-02T13:12:44;4.82;;;0.60;;
80425;SDS011;69766;51.476;5.704;2024-03-02T13:15:44;2.92;;;0.63;;
80425;SDS011;69766;51.476;5.704;2024-03-02T13:22:04;4.93;;;0.73;;
80425;SDS011;69766;51.476;5.704;2024-03-02T13:24:46;3.40;;;0.60;;
80425;SDS011;69766;51.476;5.704;2024-03-02T13:27:36;2.08;;;0.70;;
80425;SDS011;69766;51.476;5.704;2024-03-02T13:30:30;3.05;;;0.70;;
80425;SDS011;69766;51.476;5.704;2024-03-02T13:33:16;2.58;;;0.50;;
80425;SDS011;69766;51.476;5.704;2024-03-02T13:35:52;4.38;;;0.50;;
80425;SDS011;69766;51.476;5.704;2024-03-02T13:42:09;2.10;;;1.30;;
80425;SDS011;69766;51.476;5.704;2024-03-02T13:44:50;3.97;;;0.60;;
80425;SDS011;69766;51.476;5.704;2024-03-02T13:50:27;2.90;;;0.88;;
80425;SDS011;69766;51.476;5.704;2024-03-02T13:53:06;2.80;;;0.60;;
80425;SDS011;69766;51.476;5.704;2024-03-02T13:55:38;4.40;;;0.95;;
80425;SDS011;69766;51.476;5.704;2024-03-02T13:58:19;3.70;;;0.60;;
80425;SDS011;69766;51.476;5.704;2024-03-02T14:01:13;1.90;;;0.52;;
80425;SDS011;69766;51.476;5.704;2024-03-02T14:03:52;1.48;;;0.63;;
80425;SDS011;69766;51.476;5.704;2024-03-02T14:06:33;2.95;;;1.00;;
80425;SDS011;69766;51.476;5.704;2024-03-02T14:09:13;2.27;;;0.53;;
80425;SDS011;69766;51.476;5.704;2024-03-02T14:14:52;2.22;;;0.50;;
80425;SDS011;69766;51.476;5.704;2024-03-02T14:17:46;1.48;;;0.57;;
80425;SDS011;69766;51.476;5.704;2024-03-02T14:20:20;1.95;;;0.70;;
80425;SDS011;69766;51.476;5.704;2024-03-02T14:23:05;0.60;;;0.30;;
80425;SDS011;69766;51.476;5.704;2024-03-02T14:25:42;3.00;;;0.50;;
80425;SDS011;69766;51.476;5.704;2024-03-02T14:28:11;1.80;;;0.50;;
80425;SDS011;69766;51.476;5.704;2024-03-02T14:30:41;1.20;;;0.43;;
80425;SDS011;69766;51.476;5.704;2024-03-02T14:33:20;2.58;;;0.45;;
80425;SDS011;69766;51.476;5.704;2024-03-02T14:36:04;3.28;;;0.90;;
80425;SDS011;69766;51.476;5.704;2024-03-02T14:38:57;4.70;;;0.77;;
80425;SDS011;69766;51.476;5.704;2024-03-02T14:41:35;1.45;;;0.50;;
80425;SDS011;69766;51.476;5.704;2024-03-02T14:44:28;0.90;;;0.50;;
80425;SDS011;69766;51.476;5.704;2024-03-02T14:47:09;2.90;;;0.70;;
80425;SDS011;69766;51.476;5.704;2024-03-02T14:53:12;2.63;;;0.80;;
80425;SDS011;69766;51.476;5.704;2024-03-02T14:55:56;4.47;;;1.02;;
80425;SDS011;69766;51.476;5.704;2024-03-02T14:58:41;4.00;;;0.88;;
80425;SDS011;69766;51.476;5.704;2024-03-02T15:01:12;1.70;;;0.50;;
80425;SDS011;69766;51.476;5.704;2024-03-02T15:07:39;4.93;;;0.55;;
80425;SDS011;69766;51.476;5.704;2024-03-02T15:10:41;1.35;;;0.63;;
80425;SDS011;69766;51.476;5.704;2024-03-02T15:16:21;1.77;;;0.60;;
80425;SDS011;69766;51.476;5.704;2024-03-02T15:19:07;1.73;;;0.60;;
80425;SDS011;69766;51.476;5.704;2024-03-02T15:21:50;4.45;;;0.75;;
80425;SDS011;69766;51.476;5.704;2024-03-02T15:33:59;2.03;;;0.60;;
80425;SDS011;69766;51.476;5.704;2024-03-02T15:36:51;1.52;;;0.50;;
80425;SDS011;69766;51.476;5.704;2024-03-02T15:39:33;1.70;;;0.45;;
80425;SDS011;69766;51.476;5.704;2024-03-02T15:42:20;3.72;;;0.60;;
80425;SDS011;69766;51.476;5.704;2024-03-02T15:44:52;1.95;;;0.30;;
80425;SDS011;69766;51.476;5.704;2024-03-02T15:47:24;1.70;;;0.55;;
80425;SDS011;69766;51.476;5.704;2024-03-02T15:50:00;1.63;;;0.50;;
80425;SDS011;69766;51.476;5.704;2024-03-02T15:52:38;2.55;;;0.70;;
80425;SDS011;69766;51.476;5.704;2024-03-02T15:55:26;2.38;;;0.68;;
80425;SDS011;69766;51.476;5.704;2024-03-02T15:58:00;1.98;;;1.00;;
80425;SDS011;69766;51.476;5.704;2024-03-02T16:00:29;1.20;;;0.60;;
80425;SDS011;69766;51.476;5.704;2024-03-02T16:02:57;2.72;;;0.70;;
80425;SDS011;69766;51.476;5.704;2024-03-02T16:05:23;1.98;;;0.55;;
80425;SDS011;69766;51.476;5.704;2024-03-02T16:07:49;1.52;;;0.50;;
80425;SDS011;69766;51.476;5.704;2024-03-02T16:10:17;2.42;;;0.70;;
80425;SDS011;69766;51.476;5.704;2024-03-02T16:12:43;2.50;;;0.60;;
80425;SDS011;69766;51.476;5.704;2024-03-02T16:15:12;2.47;;;0.70;;
80425;SDS011;69766;51.476;5.704;2024-03-02T16:17:39;1.25;;;0.60;;
80425;SDS011;69766;51.476;5.704;2024-03-02T16:20:14;2.80;;;0.60;;
80425;SDS011;69766;51.476;5.704;2024-03-02T16:23:13;2.08;;;0.50;;
80425;SDS011;69766;51.476;5.704;2024-03-02T16:25:42;2.17;;;0.45;;
80425;SDS011;69766;51.476;5.704;2024-03-02T16:31:32;1.48;;;0.60;;
80425;SDS011;69766;51.476;5.704;2024-03-02T16:37:34;3.10;;;1.33;;
80425;SDS011;69766;51.476;5.704;2024-03-02T16:40:36;2.45;;;0.77;;
80425;SDS011;69766;51.476;5.704;2024-03-02T16:43:42;2.75;;;0.80;;
80425;SDS011;69766;51.476;5.704;2024-03-02T16:46:10;2.33;;;0.80;;
80425;SDS011;69766;51.476;5.704;2024-03-02T16:48:36;2.30;;;0.80;;
80425;SDS011;69766;51.476;5.704;2024-03-02T16:51:06;1.58;;;0.85;;
80425;SDS011;69766;51.476;5.704;2024-03-02T16:53:33;2.55;;;0.70;;
80425;SDS011;69766;51.476;5.704;2024-03-02T16:56:01;3.15;;;1.05;;
80425;SDS011;69766;51.476;5.704;2024-03-02T16:58:28;3.38;;;0.90;;
80425;SDS011;69766;51.476;5.704;2024-03-02T17:00:54;3.08;;;0.85;;
80425;SDS011;69766;51.476;5.704;2024-03-02T17:03:20;2.60;;;1.45;;
80425;SDS011;69766;51.476;5.704;2024-03-02T17:05:46;1.92;;;1.10;;
80425;SDS011;69766;51.476;5.704;2024-03-02T17:08:12;2.00;;;1.00;;
80425;SDS011;69766;51.476;5.704;2024-03-02T17:10:38;2.38;;;1.08;;
80425;SDS011;69766;51.476;5.704;2024-03-02T17:13:05;2.10;;;1.10;;
80425;SDS011;69766;51.476;5.704;2024-03-02T17:15:34;4.78;;;1.00;;
80425;SDS011;69766;51.476;5.704;2024-03-02T17:18:00;4.57;;;1.17;;
80425;SDS011;69766;51.476;5.704;2024-03-02T17:20:26;4.05;;;1.38;;
80425;SDS011;69766;51.476;5.704;2024-03-02T17:22:53;3.55;;;1.15;;
80425;SDS011;69766;51.476;5.704;2024-03-02T17:25:19;2.47;;;1.02;;
80425;SDS011;69766;51.476;5.704;2024-03-02T17:27:48;3.47;;;1.25;;
80425;SDS011;69766;51.476;5.704;2024-03-02T17:30:14;3.38;;;0.90;;
80425;SDS011;69766;51.476;5.704;2024-03-02T17:32:40;1.75;;;0.90;;
80425;SDS011;69766;51.476;5.704;2024-03-02T17:35:06;4.97;;;1.13;;
80425;SDS011;69766;51.476;5.704;2024-03-02T17:37:32;3.33;;;1.30;;
80425;SDS011;69766;51.476;5.704;2024-03-02T17:40:00;4.05;;;1.20;;
80425;SDS011;69766;51.476;5.704;2024-03-02T17:42:26;2.30;;;1.38;;
80425;SDS011;69766;51.476;5.704;2024-03-02T17:44:54;4.03;;;1.33;;
80425;SDS011;69766;51.476;5.704;2024-03-02T17:47:20;3.40;;;1.33;;
80425;SDS011;69766;51.476;5.704;2024-03-02T17:49:45;3.95;;;1.02;;
80425;SDS011;69766;51.476;5.704;2024-03-02T17:52:14;4.65;;;1.50;;
80425;SDS011;69766;51.476;5.704;2024-03-02T17:54:42;3.47;;;1.63;;
80425;SDS011;69766;51.476;5.704;2024-03-02T17:57:09;2.10;;;1.20;;
80425;SDS011;69766;51.476;5.704;2024-03-02T17:59:35;3.05;;;0.98;;
80425;SDS011;69766;51.476;5.704;2024-03-02T18:02:02;3.60;;;1.13;;
80425;SDS011;69766;51.476;5.704;2024-03-02T18:04:28;2.50;;;1.10;;
80425;SDS011;69766;51.476;5.704;2024-03-02T18:06:54;3.05;;;1.48;;
80425;SDS011;69766;51.476;5.704;2024-03-02T18:09:23;2.30;;;1.23;;
80425;SDS011;69766;51.476;5.704;2024-03-02T18:11:49;2.25;;;1.30;;
80425;SDS011;69766;51.476;5.704;2024-03-02T18:14:20;6.57;;;2.08;;
80425;SDS011;69766;51.476;5.704;2024-03-02T18:16:46;1.65;;;1.20;;
80425;SDS011;69766;51.476;5.704;2024-03-02T18:19:12;4.40;;;1.48;;
80425;SDS011;69766;51.476;5.704;2024-03-02T18:21:38;4.53;;;1.60;;
80425;SDS011;69766;51.476;5.704;2024-03-02T18:24:04;7.25;;;1.45;;
80425;SDS011;69766;51.476;5.704;2024-03-02T18:26:30;3.22;;;1.20;;
80425;SDS011;69766;51.476;5.704;2024-03-02T18:28:58;4.53;;;1.60;;
80425;SDS011;69766;51.476;5.704;2024-03-02T18:31:24;3.33;;;1.20;;
80425;SDS011;69766;51.476;5.704;2024-03-02T18:33:50;3.53;;;1.25;;
80425;SDS011;69766;51.476;5.704;2024-03-02T18:36:15;2.78;;;1.13;;
80425;SDS011;69766;51.476;5.704;2024-03-02T18:38:41;3.72;;;1.50;;
80425;SDS011;69766;51.476;5.704;2024-03-02T18:41:07;2.95;;;1.70;;
80425;SDS011;69766;51.476;5.704;2024-03-02T18:43:33;5.15;;;1.45;;
80425;SDS011;69766;51.476;5.704;2024-03-02T18:46:01;3.42;;;1.33;;
80425;SDS011;69766;51.476;5.704;2024-03-02T18:48:27;3.15;;;1.45;;
80425;SDS011;69766;51.476;5.704;2024-03-02T18:50:53;2.50;;;1.30;;
80425;SDS011;69766;51.476;5.704;2024-03-02T18:53:20;5.50;;;1.67;;
80425;SDS011;69766;51.476;5.704;2024-03-02T18:55:46;3.20;;;1.45;;
80425;SDS011;69766;51.476;5.704;2024-03-02T18:58:23;3.35;;;1.05;;
80425;SDS011;69766;51.476;5.704;2024-03-02T19:00:50;5.70;;;1.70;;
80425;SDS011;69766;51.476;5.704;2024-03-02T19:03:16;4.22;;;1.60;;
80425;SDS011;69766;51.476;5.704;2024-03-02T19:05:41;4.22;;;1.50;;
80425;SDS011;69766;51.476;5.704;2024-03-02T19:08:07;4.57;;;2.28;;
80425;SDS011;69766;51.476;5.704;2024-03-02T19:10:33;5.05;;;1.58;;
80425;SDS011;69766;51.476;5.704;2024-03-02T19:12:59;2.85;;;1.50;;
80425;SDS011;69766;51.476;5.704;2024-03-02T19:15:25;2.83;;;1.92;;
80425;SDS011;69766;51.476;5.704;2024-03-02T19:17:51;3.13;;;1.80;;
80425;SDS011;69766;51.476;5.704;2024-03-02T19:20:17;6.18;;;1.70;;
80425;SDS011;69766;51.476;5.704;2024-03-02T19:22:43;3.08;;;1.60;;
80425;SDS011;69766;51.476;5.704;2024-03-02T19:25:09;4.53;;;1.88;;
80425;SDS011;69766;51.476;5.704;2024-03-02T19:27:36;3.53;;;1.92;;
80425;SDS011;69766;51.476;5.704;2024-03-02T19:30:02;5.70;;;2.30;;
80425;SDS011;69766;51.476;5.704;2024-03-02T19:32:32;3.80;;;2.10;;
80425;SDS011;69766;51.476;5.704;2024-03-02T19:35:03;3.72;;;2.00;;
80425;SDS011;69766;51.476;5.704;2024-03-02T19:37:30;4.03;;;1.90;;
80425;SDS011;69766;51.476;5.704;2024-03-02T19:40:00;3.90;;;1.90;;
80425;SDS011;69766;51.476;5.704;2024-03-02T19:42:30;3.58;;;2.08;;
80425;SDS011;69766;51.476;5.704;2024-03-02T19:44:56;6.30;;;2.10;;
80425;SDS011;69766;51.476;5.704;2024-03-02T19:47:22;5.53;;;2.22;;
80425;SDS011;69766;51.476;5.704;2024-03-02T19:49:48;4.10;;;1.92;;
80425;SDS011;69766;51.476;5.704;2024-03-02T19:52:17;4.32;;;1.95;;
80425;SDS011;69766;51.476;5.704;2024-03-02T19:54:43;4.88;;;1.90;;
80425;SDS011;69766;51.476;5.704;2024-03-02T19:57:08;4.70;;;2.20;;
80425;SDS011;69766;51.476;5.704;2024-03-02T19:59:34;3.58;;;2.00;;
80425;SDS011;69766;51.476;5.704;2024-03-02T20:02:00;3.95;;;2.10;;
80425;SDS011;69766;51.476;5.704;2024-03-02T20:04:26;5.55;;;2.55;;
80425;SDS011;69766;51.476;5.704;2024-03-02T20:06:55;4.65;;;2.20;;
80425;SDS011;69766;51.476;5.704;2024-03-02T20:09:20;6.18;;;2.05;;
80425;SDS011;69766;51.476;5.704;2024-03-02T20:11:46;5.82;;;2.40;;
80425;SDS011;69766;51.476;5.704;2024-03-02T20:14:16;5.25;;;2.47;;
80425;SDS011;69766;51.476;5.704;2024-03-02T20:16:44;6.35;;;2.33;;
80425;SDS011;69766;51.476;5.704;2024-03-02T20:19:10;4.80;;;2.55;;
80425;SDS011;69766;51.476;5.704;2024-03-02T20:21:36;3.70;;;2.17;;
80425;SDS011;69766;51.476;5.704;2024-03-02T20:24:02;4.82;;;2.75;;
80425;SDS011;69766;51.476;5.704;2024-03-02T20:26:31;5.63;;;2.17;;
80425;SDS011;69766;51.476;5.704;2024-03-02T20:28:57;6.20;;;2.47;;
80425;SDS011;69766;51.476;5.704;2024-03-02T20:34:11;7.82;;;2.78;;
80425;SDS011;69766;51.476;5.704;2024-03-02T20:36:42;5.15;;;2.38;;
80425;SDS011;69766;51.476;5.704;2024-03-02T20:41:51;5.57;;;2.58;;
80425;SDS011;69766;51.476;5.704;2024-03-02T20:44:18;4.68;;;2.28;;
80425;SDS011;69766;51.476;5.704;2024-03-02T20:46:46;5.72;;;2.30;;
80425;SDS011;69766;51.476;5.704;2024-03-02T20:49:12;4.22;;;2.25;;
80425;SDS011;69766;51.476;5.704;2024-03-02T20:51:39;4.40;;;2.30;;
80425;SDS011;69766;51.476;5.704;2024-03-02T20:54:04;5.82;;;2.50;;
80425;SDS011;69766;51.476;5.704;2024-03-02T20:56:34;4.38;;;2.50;;
80425;SDS011;69766;51.476;5.704;2024-03-02T20:59:07;7.38;;;2.70;;
80425;SDS011;69766;51.476;5.704;2024-03-02T21:01:46;6.72;;;2.65;;
80425;SDS011;69766;51.476;5.704;2024-03-02T21:04:15;4.72;;;2.30;;
80425;SDS011;69766;51.476;5.704;2024-03-02T21:06:44;5.65;;;2.08;;
80425;SDS011;69766;51.476;5.704;2024-03-02T21:09:10;5.13;;;2.75;;
80425;SDS011;69766;51.476;5.704;2024-03-02T21:11:39;5.53;;;2.40;;
80425;SDS011;69766;51.476;5.704;2024-03-02T21:14:09;4.20;;;2.42;;
80425;SDS011;69766;51.476;5.704;2024-03-02T21:16:48;4.88;;;2.47;;
80425;SDS011;69766;51.476;5.704;2024-03-02T21:19:15;4.47;;;2.20;;
80425;SDS011;69766;51.476;5.704;2024-03-02T21:21:45;4.18;;;2.25;;
80425;SDS011;69766;51.476;5.704;2024-03-02T21:24:11;6.63;;;2.50;;
80425;SDS011;69766;51.476;5.704;2024-03-02T21:26:38;4.78;;;2.42;;
80425;SDS011;69766;51.476;5.704;2024-03-02T21:29:04;7.65;;;2.40;;
80425;SDS011;69766;51.476;5.704;2024-03-02T21:31:30;6.93;;;3.03;;
80425;SDS011;69766;51.476;5.704;2024-03-02T21:33:56;4.88;;;2.58;;
80425;SDS011;69766;51.476;5.704;2024-03-02T21:36:27;3.47;;;2.10;;
80425;SDS011;69766;51.476;5.704;2024-03-02T21:38:53;3.85;;;2.13;;
80425;SDS011;69766;51.476;5.704;2024-03-02T21:41:19;4.18;;;2.08;;
80425;SDS011;69766;51.476;5.704;2024-03-02T21:43:45;5.50;;;2.30;;
80425;SDS011;69766;51.476;5.704;2024-03-02T21:46:13;6.10;;;2.40;;
80425;SDS011;69766;51.476;5.704;2024-03-02T21:48:58;6.05;;;2.03;;
80425;SDS011;69766;51.476;5.704;2024-03-02T21:51:24;6.88;;;2.40;;
80425;SDS011;69766;51.476;5.704;2024-03-02T21:53:52;5.28;;;2.20;;